sensor_id;sensor_type;location;lat;lon;timestamp;P1;durP1;ratioP1;P2;durP2;ratioP2
33862;SDS011;20158;51.436;-2.742;2023-09-07T00:01:51;10.85;;;8.02;;
33862;SDS011;20158;51.436;-2.742;2023-09-07T00:04:18;8.60;;;7.80;;
33862;SDS011;20158;51.436;-2.742;2023-09-07T00:06:45;9.60;;;8.23;;
33862;SDS011;20158;51.436;-2.742;2023-09-07T00:09:11;9.88;;;7.45;;
33862;SDS011;20158;51.436;-2.742;2023-09-07T00:11:38;9.70;;;7.32;;
33862;SDS011;20158;51.436;-2.742;2023-09-07T00:14:04;8.43;;;7.57;;
33862;SDS011;20158;51.436;-2.742;2023-09-07T00:16:34;12.98;;;9.27;;
33862;SDS011;20158;51.436;-2.742;2023-09-07T00:19:01;9.43;;;8.10;;
33862;SDS011;20158;51.436;-2.742;2023-09-07T00:21:31;12.88;;;8.27;;
33862;SDS011;20158;51.436;-2.742;2023-09-07T00:23:57;10.98;;;7.72;;
33862;SDS011;20158;51.436;-2.742;2023-09-07T00:26:24;18.75;;;8.38;;
33862;SDS011;20158;51.436;-2.742;2023-09-07T00:28:53;8.13;;;7.30;;
33862;SDS011;20158;51.436;-2.742;2023-09-07T00:31:20;12.18;;;8.40;;
33862;SDS011;20158;51.436;-2.742;2023-09-07T00:33:46;10.90;;;8.20;;
33862;SDS011;20158;51.436;-2.742;2023-09-07T00:36:13;10.10;;;7.53;;
33862;SDS011;20158;51.436;-2.742;2023-09-07T00:38:40;10.63;;;7.93;;
33862;SDS011;20158;51.436;-2.742;2023-09-07T00:41:07;10.38;;;8.02;;
33862;SDS011;20158;51.436;-2.742;2023-09-07T00:43:34;10.15;;;7.60;;
33862;SDS011;20158;51.436;-2.742;2023-09-07T00:46:01;9.88;;;7.38;;
33862;SDS011;20158;51.436;-2.742;2023-09-07T00:48:28;7.70;;;6.85;;
33862;SDS011;20158;51.436;-2.742;2023-09-07T00:50:54;10.48;;;7.47;;
33862;SDS011;20158;51.436;-2.742;2023-09-07T00:53:21;7.95;;;7.07;;
33862;SDS011;20158;51.436;-2.742;2023-09-07T00:55:51;11.43;;;7.95;;
33862;SDS011;20158;51.436;-2.742;2023-09-07T00:58:17;9.40;;;7.80;;
33862;SDS011;20158;51.436;-2.742;2023-09-07T01:00:48;11.32;;;7.90;;
33862;SDS011;20158;51.436;-2.742;2023-09-07T01:03:15;8.77;;;7.57;;
33862;SDS011;20158;51.436;-2.742;2023-09-07T01:05:52;12.65;;;7.20;;
33862;SDS011;20158;51.436;-2.742;2023-09-07T01:08:39;16.23;;;8.68;;
33862;SDS011;20158;51.436;-2.742;2023-09-07T01:11:15;9.63;;;7.10;;
33862;SDS011;20158;51.436;-2.742;2023-09-07T01:13:43;14.18;;;7.25;;
33862;SDS011;20158;51.436;-2.742;2023-09-07T01:16:10;12.63;;;7.20;;
33862;SDS011;20158;51.436;-2.742;2023-09-07T01:18:41;12.88;;;6.90;;
33862;SDS011;20158;51.436;-2.742;2023-09-07T01:21:09;14.48;;;7.25;;
33862;SDS011;20158;51.436;-2.742;2023-09-07T01:23:41;12.40;;;7.47;;
33862;SDS011;20158;51.436;-2.742;2023-09-07T01:26:09;13.18;;;7.78;;
33862;SDS011;20158;51.436;-2.742;2023-09-07T01:28:36;12.50;;;6.95;;
33862;SDS011;20158;51.436;-2.742;2023-09-07T01:31:03;11.23;;;7.50;;
33862;SDS011;20158;51.436;-2.742;2023-09-07T01:33:30;11.00;;;7.00;;
33862;SDS011;20158;51.436;-2.742;2023-09-07T01:35:56;14.73;;;7.20;;
33862;SDS011;20158;51.436;-2.742;2023-09-07T01:38:22;15.63;;;8.60;;
33862;SDS011;20158;51.436;-2.742;2023-09-07T01:40:48;8.93;;;6.70;;
33862;SDS011;20158;51.436;-2.742;2023-09-07T01:43:14;14.40;;;6.90;;
33862;SDS011;20158;51.436;-2.742;2023-09-07T01:45:41;10.43;;;7.55;;
33862;SDS011;20158;51.436;-2.742;2023-09-07T01:48:11;13.02;;;7.15;;
33862;SDS011;20158;51.436;-2.742;2023-09-07T01:50:39;12.60;;;6.93;;
33862;SDS011;20158;51.436;-2.742;2023-09-07T01:53:05;13.95;;;8.40;;
33862;SDS011;20158;51.436;-2.742;2023-09-07T01:55:32;13.57;;;7.95;;
33862;SDS011;20158;51.436;-2.742;2023-09-07T01:58:00;10.45;;;7.10;;
33862;SDS011;20158;51.436;-2.742;2023-09-07T02:00:26;9.38;;;6.88;;
33862;SDS011;20158;51.436;-2.742;2023-09-07T02:02:52;13.60;;;8.23;;
33862;SDS011;20158;51.436;-2.742;2023-09-07T02:05:18;14.48;;;7.70;;
33862;SDS011;20158;51.436;-2.742;2023-09-07T02:07:46;10.32;;;7.93;;
33862;SDS011;20158;51.436;-2.742;2023-09-07T02:10:15;11.25;;;8.38;;
33862;SDS011;20158;51.436;-2.742;2023-09-07T02:12:41;13.50;;;8.95;;
33862;SDS011;20158;51.436;-2.742;2023-09-07T02:15:09;15.32;;;8.30;;
33862;SDS011;20158;51.436;-2.742;2023-09-07T02:17:35;12.55;;;7.80;;
33862;SDS011;20158;51.436;-2.742;2023-09-07T02:20:02;10.02;;;8.48;;
33862;SDS011;20158;51.436;-2.742;2023-09-07T02:22:36;13.60;;;7.97;;
33862;SDS011;20158;51.436;-2.742;2023-09-07T02:25:02;12.40;;;8.48;;
33862;SDS011;20158;51.436;-2.742;2023-09-07T02:27:32;17.42;;;8.73;;
33862;SDS011;20158;51.436;-2.742;2023-09-07T02:29:58;11.88;;;7.38;;
33862;SDS011;20158;51.436;-2.742;2023-09-07T02:32:24;9.90;;;7.78;;
33862;SDS011;20158;51.436;-2.742;2023-09-07T02:34:50;15.35;;;9.73;;
33862;SDS011;20158;51.436;-2.742;2023-09-07T02:37:16;11.43;;;9.30;;
33862;SDS011;20158;51.436;-2.742;2023-09-07T02:39:42;15.65;;;8.30;;
33862;SDS011;20158;51.436;-2.742;2023-09-07T02:42:08;12.13;;;8.23;;
33862;SDS011;20158;51.436;-2.742;2023-09-07T02:44:35;12.50;;;8.20;;
33862;SDS011;20158;51.436;-2.742;2023-09-07T02:47:02;12.68;;;8.43;;
33862;SDS011;20158;51.436;-2.742;2023-09-07T02:49:29;11.27;;;8.77;;
33862;SDS011;20158;51.436;-2.742;2023-09-07T02:51:55;10.32;;;8.15;;
33862;SDS011;20158;51.436;-2.742;2023-09-07T02:54:22;10.02;;;8.57;;
33862;SDS011;20158;51.436;-2.742;2023-09-07T02:56:49;11.57;;;8.02;;
33862;SDS011;20158;51.436;-2.742;2023-09-07T02:59:15;9.70;;;7.97;;
33862;SDS011;20158;51.436;-2.742;2023-09-07T03:01:41;13.90;;;7.95;;
33862;SDS011;20158;51.436;-2.742;2023-09-07T03:04:07;11.70;;;8.63;;
33862;SDS011;20158;51.436;-2.742;2023-09-07T03:06:34;15.35;;;8.60;;
33862;SDS011;20158;51.436;-2.742;2023-09-07T03:09:00;10.85;;;8.23;;
33862;SDS011;20158;51.436;-2.742;2023-09-07T03:11:26;8.70;;;7.47;;
33862;SDS011;20158;51.436;-2.742;2023-09-07T03:13:59;11.23;;;8.07;;
33862;SDS011;20158;51.436;-2.742;2023-09-07T03:16:26;11.05;;;8.82;;
33862;SDS011;20158;51.436;-2.742;2023-09-07T03:18:52;10.35;;;8.48;;
33862;SDS011;20158;51.436;-2.742;2023-09-07T03:21:18;10.73;;;9.63;;
33862;SDS011;20158;51.436;-2.742;2023-09-07T03:23:44;12.93;;;9.02;;
33862;SDS011;20158;51.436;-2.742;2023-09-07T03:26:12;10.88;;;8.13;;
33862;SDS011;20158;51.436;-2.742;2023-09-07T03:28:38;11.18;;;8.35;;
33862;SDS011;20158;51.436;-2.742;2023-09-07T03:31:04;12.45;;;8.98;;
33862;SDS011;20158;51.436;-2.742;2023-09-07T03:33:30;11.40;;;9.30;;
33862;SDS011;20158;51.436;-2.742;2023-09-07T03:35:56;11.60;;;9.23;;
33862;SDS011;20158;51.436;-2.742;2023-09-07T03:38:25;12.63;;;8.27;;
33862;SDS011;20158;51.436;-2.742;2023-09-07T03:40:51;16.08;;;9.75;;
33862;SDS011;20158;51.436;-2.742;2023-09-07T03:43:18;12.70;;;8.73;;
33862;SDS011;20158;51.436;-2.742;2023-09-07T03:45:45;12.20;;;9.10;;
33862;SDS011;20158;51.436;-2.742;2023-09-07T03:48:11;14.55;;;9.05;;
33862;SDS011;20158;51.436;-2.742;2023-09-07T03:50:38;15.70;;;9.65;;
33862;SDS011;20158;51.436;-2.742;2023-09-07T03:53:04;14.38;;;9.80;;
33862;SDS011;20158;51.436;-2.742;2023-09-07T03:55:39;14.57;;;8.55;;
33862;SDS011;20158;51.436;-2.742;2023-09-07T03:58:06;13.88;;;9.60;;
33862;SDS011;20158;51.436;-2.742;2023-09-07T04:00:33;13.82;;;9.73;;
33862;SDS011;20158;51.436;-2.742;2023-09-07T04:02:59;14.57;;;9.18;;
33862;SDS011;20158;51.436;-2.742;2023-09-07T04:05:25;12.00;;;8.93;;
33862;SDS011;20158;51.436;-2.742;2023-09-07T04:07:51;11.77;;;8.63;;
33862;SDS011;20158;51.436;-2.742;2023-09-07T04:10:17;10.43;;;9.07;;
33862;SDS011;20158;51.436;-2.742;2023-09-07T04:12:43;9.48;;;8.27;;
33862;SDS011;20158;51.436;-2.742;2023-09-07T04:15:09;10.77;;;9.40;;
33862;SDS011;20158;51.436;-2.742;2023-09-07T04:17:36;9.52;;;8.20;;
33862;SDS011;20158;51.436;-2.742;2023-09-07T04:20:09;14.48;;;9.38;;
33862;SDS011;20158;51.436;-2.742;2023-09-07T04:22:39;12.60;;;8.38;;
33862;SDS011;20158;51.436;-2.742;2023-09-07T04:25:06;12.73;;;9.13;;
33862;SDS011;20158;51.436;-2.742;2023-09-07T04:27:32;10.80;;;8.88;;
33862;SDS011;20158;51.436;-2.742;2023-09-07T04:29:59;10.70;;;9.60;;
33862;SDS011;20158;51.436;-2.742;2023-09-07T04:32:26;11.57;;;9.30;;
33862;SDS011;20158;51.436;-2.742;2023-09-07T04:34:55;13.05;;;9.43;;
33862;SDS011;20158;51.436;-2.742;2023-09-07T04:37:23;11.68;;;9.52;;
33862;SDS011;20158;51.436;-2.742;2023-09-07T04:39:50;10.48;;;9.48;;
33862;SDS011;20158;51.436;-2.742;2023-09-07T04:42:18;10.68;;;9.73;;
33862;SDS011;20158;51.436;-2.742;2023-09-07T04:44:46;12.20;;;9.45;;
33862;SDS011;20158;51.436;-2.742;2023-09-07T04:47:13;9.68;;;8.70;;
33862;SDS011;20158;51.436;-2.742;2023-09-07T04:49:41;12.38;;;9.77;;
33862;SDS011;20158;51.436;-2.742;2023-09-07T04:52:07;10.65;;;9.57;;
33862;SDS011;20158;51.436;-2.742;2023-09-07T04:54:35;11.57;;;10.23;;
33862;SDS011;20158;51.436;-2.742;2023-09-07T04:57:01;12.23;;;10.95;;
33862;SDS011;20158;51.436;-2.742;2023-09-07T04:59:27;11.25;;;10.13;;
33862;SDS011;20158;51.436;-2.742;2023-09-07T05:01:53;11.55;;;10.38;;
33862;SDS011;20158;51.436;-2.742;2023-09-07T05:04:19;12.32;;;10.55;;
33862;SDS011;20158;51.436;-2.742;2023-09-07T05:06:45;10.70;;;9.70;;
33862;SDS011;20158;51.436;-2.742;2023-09-07T05:09:12;10.82;;;9.77;;
33862;SDS011;20158;51.436;-2.742;2023-09-07T05:11:39;10.77;;;9.75;;
33862;SDS011;20158;51.436;-2.742;2023-09-07T05:14:05;11.95;;;10.45;;
33862;SDS011;20158;51.436;-2.742;2023-09-07T05:16:31;11.05;;;9.95;;
33862;SDS011;20158;51.436;-2.742;2023-09-07T05:18:57;12.80;;;10.73;;
33862;SDS011;20158;51.436;-2.742;2023-09-07T05:21:24;14.25;;;10.07;;
33862;SDS011;20158;51.436;-2.742;2023-09-07T05:23:51;12.07;;;10.85;;
33862;SDS011;20158;51.436;-2.742;2023-09-07T05:26:21;10.48;;;9.48;;
33862;SDS011;20158;51.436;-2.742;2023-09-07T05:28:50;11.73;;;10.13;;
33862;SDS011;20158;51.436;-2.742;2023-09-07T05:31:16;12.63;;;10.20;;
33862;SDS011;20158;51.436;-2.742;2023-09-07T05:33:42;13.40;;;10.00;;
33862;SDS011;20158;51.436;-2.742;2023-09-07T05:36:08;12.57;;;10.55;;
33862;SDS011;20158;51.436;-2.742;2023-09-07T05:38:35;11.73;;;10.52;;
33862;SDS011;20158;51.436;-2.742;2023-09-07T05:41:01;11.25;;;10.25;;
33862;SDS011;20158;51.436;-2.742;2023-09-07T05:43:27;11.38;;;10.27;;
33862;SDS011;20158;51.436;-2.742;2023-09-07T05:45:53;12.48;;;11.00;;
33862;SDS011;20158;51.436;-2.742;2023-09-07T05:48:20;11.45;;;10.32;;
33862;SDS011;20158;51.436;-2.742;2023-09-07T05:50:47;10.05;;;9.05;;
33862;SDS011;20158;51.436;-2.742;2023-09-07T05:53:13;10.93;;;9.93;;
33862;SDS011;20158;51.436;-2.742;2023-09-07T05:55:39;12.27;;;11.07;;
33862;SDS011;20158;51.436;-2.742;2023-09-07T05:58:06;11.88;;;10.80;;
33862;SDS011;20158;51.436;-2.742;2023-09-07T06:00:36;12.05;;;10.95;;
33862;SDS011;20158;51.436;-2.742;2023-09-07T06:03:05;12.23;;;11.05;;
33862;SDS011;20158;51.436;-2.742;2023-09-07T06:05:33;12.82;;;11.43;;
33862;SDS011;20158;51.436;-2.742;2023-09-07T06:08:01;12.43;;;11.20;;
33862;SDS011;20158;51.436;-2.742;2023-09-07T06:10:28;12.30;;;11.07;;
33862;SDS011;20158;51.436;-2.742;2023-09-07T06:12:56;11.80;;;10.65;;
33862;SDS011;20158;51.436;-2.742;2023-09-07T06:15:25;11.43;;;10.43;;
33862;SDS011;20158;51.436;-2.742;2023-09-07T06:17:55;14.25;;;10.70;;
33862;SDS011;20158;51.436;-2.742;2023-09-07T06:20:21;13.80;;;12.00;;
33862;SDS011;20158;51.436;-2.742;2023-09-07T06:22:48;16.88;;;11.60;;
33862;SDS011;20158;51.436;-2.742;2023-09-07T06:25:15;11.65;;;10.55;;
33862;SDS011;20158;51.436;-2.742;2023-09-07T06:27:44;14.13;;;11.82;;
33862;SDS011;20158;51.436;-2.742;2023-09-07T06:30:11;16.40;;;11.40;;
33862;SDS011;20158;51.436;-2.742;2023-09-07T06:32:37;13.50;;;12.23;;
33862;SDS011;20158;51.436;-2.742;2023-09-07T06:35:08;13.35;;;12.00;;
33862;SDS011;20158;51.436;-2.742;2023-09-07T06:37:34;13.40;;;12.10;;
33862;SDS011;20158;51.436;-2.742;2023-09-07T06:40:02;13.27;;;11.95;;
33862;SDS011;20158;51.436;-2.742;2023-09-07T06:42:29;12.50;;;11.20;;
33862;SDS011;20158;51.436;-2.742;2023-09-07T06:45:03;13.38;;;11.98;;
33862;SDS011;20158;51.436;-2.742;2023-09-07T06:47:30;13.75;;;12.38;;
33862;SDS011;20158;51.436;-2.742;2023-09-07T06:49:56;14.88;;;13.48;;
33862;SDS011;20158;51.436;-2.742;2023-09-07T06:52:23;15.80;;;13.00;;
33862;SDS011;20158;51.436;-2.742;2023-09-07T06:54:53;15.65;;;14.15;;
33862;SDS011;20158;51.436;-2.742;2023-09-07T06:57:20;12.85;;;11.55;;
33862;SDS011;20158;51.436;-2.742;2023-09-07T06:59:50;14.52;;;13.32;;
33862;SDS011;20158;51.436;-2.742;2023-09-07T07:02:16;20.75;;;13.80;;
33862;SDS011;20158;51.436;-2.742;2023-09-07T07:04:42;14.90;;;11.77;;
33862;SDS011;20158;51.436;-2.742;2023-09-07T07:07:15;15.48;;;14.07;;
33862;SDS011;20158;51.436;-2.742;2023-09-07T07:09:41;14.30;;;13.00;;
33862;SDS011;20158;51.436;-2.742;2023-09-07T07:12:08;14.20;;;12.90;;
33862;SDS011;20158;51.436;-2.742;2023-09-07T07:14:35;14.55;;;13.07;;
33862;SDS011;20158;51.436;-2.742;2023-09-07T07:17:02;14.43;;;12.93;;
33862;SDS011;20158;51.436;-2.742;2023-09-07T07:19:31;14.63;;;13.13;;
33862;SDS011;20158;51.436;-2.742;2023-09-07T07:21:58;13.13;;;11.98;;
33862;SDS011;20158;51.436;-2.742;2023-09-07T07:24:25;15.05;;;12.13;;
33862;SDS011;20158;51.436;-2.742;2023-09-07T07:26:51;14.50;;;13.10;;
33862;SDS011;20158;51.436;-2.742;2023-09-07T07:29:18;14.85;;;13.35;;
33862;SDS011;20158;51.436;-2.742;2023-09-07T07:31:45;14.73;;;13.35;;
33862;SDS011;20158;51.436;-2.742;2023-09-07T07:34:16;13.82;;;12.73;;
33862;SDS011;20158;51.436;-2.742;2023-09-07T07:36:44;14.73;;;13.32;;
33862;SDS011;20158;51.436;-2.742;2023-09-07T07:39:10;14.65;;;12.98;;
33862;SDS011;20158;51.436;-2.742;2023-09-07T07:41:37;13.73;;;12.50;;
33862;SDS011;20158;51.436;-2.742;2023-09-07T07:44:04;13.05;;;11.85;;
33862;SDS011;20158;51.436;-2.742;2023-09-07T07:46:30;14.27;;;12.85;;
33862;SDS011;20158;51.436;-2.742;2023-09-07T07:49:02;15.52;;;14.02;;
33862;SDS011;20158;51.436;-2.742;2023-09-07T07:51:29;17.83;;;13.77;;
33862;SDS011;20158;51.436;-2.742;2023-09-07T07:53:56;14.00;;;12.70;;
33862;SDS011;20158;51.436;-2.742;2023-09-07T07:56:23;13.30;;;12.10;;
33862;SDS011;20158;51.436;-2.742;2023-09-07T07:58:52;14.35;;;12.95;;
33862;SDS011;20158;51.436;-2.742;2023-09-07T08:01:19;15.27;;;13.77;;
33862;SDS011;20158;51.436;-2.742;2023-09-07T08:03:47;15.27;;;13.82;;
33862;SDS011;20158;51.436;-2.742;2023-09-07T08:06:14;14.55;;;13.27;;
33862;SDS011;20158;51.436;-2.742;2023-09-07T08:08:41;15.02;;;13.57;;
33862;SDS011;20158;51.436;-2.742;2023-09-07T08:11:08;14.32;;;12.95;;
33862;SDS011;20158;51.436;-2.742;2023-09-07T08:13:37;13.93;;;12.73;;
33862;SDS011;20158;51.436;-2.742;2023-09-07T08:16:05;14.50;;;13.10;;
33862;SDS011;20158;51.436;-2.742;2023-09-07T08:18:32;15.25;;;13.55;;
33862;SDS011;20158;51.436;-2.742;2023-09-07T08:21:00;14.13;;;12.73;;
33862;SDS011;20158;51.436;-2.742;2023-09-07T08:23:27;15.05;;;13.60;;
33862;SDS011;20158;51.436;-2.742;2023-09-07T08:25:53;14.65;;;13.35;;
33862;SDS011;20158;51.436;-2.742;2023-09-07T08:28:22;15.52;;;14.05;;
33862;SDS011;20158;51.436;-2.742;2023-09-07T08:30:51;15.90;;;14.38;;
33862;SDS011;20158;51.436;-2.742;2023-09-07T08:33:21;14.63;;;13.30;;
33862;SDS011;20158;51.436;-2.742;2023-09-07T08:35:55;15.40;;;13.90;;
33862;SDS011;20158;51.436;-2.742;2023-09-07T08:38:22;13.63;;;12.48;;
33862;SDS011;20158;51.436;-2.742;2023-09-07T08:40:54;14.95;;;13.43;;
33862;SDS011;20158;51.436;-2.742;2023-09-07T08:43:23;13.80;;;12.60;;
33862;SDS011;20158;51.436;-2.742;2023-09-07T08:45:51;14.32;;;12.88;;
33862;SDS011;20158;51.436;-2.742;2023-09-07T08:48:29;13.38;;;12.07;;
33862;SDS011;20158;51.436;-2.742;2023-09-07T08:50:59;13.77;;;12.05;;
33862;SDS011;20158;51.436;-2.742;2023-09-07T08:53:26;13.13;;;11.75;;
33862;SDS011;20158;51.436;-2.742;2023-09-07T08:55:53;12.05;;;10.95;;
33862;SDS011;20158;51.436;-2.742;2023-09-07T08:58:20;11.23;;;10.23;;
33862;SDS011;20158;51.436;-2.742;2023-09-07T09:00:46;11.75;;;10.75;;
33862;SDS011;20158;51.436;-2.742;2023-09-07T09:03:13;13.55;;;11.35;;
33862;SDS011;20158;51.436;-2.742;2023-09-07T09:05:40;12.77;;;11.48;;
33862;SDS011;20158;51.436;-2.742;2023-09-07T09:08:07;11.93;;;10.93;;
33862;SDS011;20158;51.436;-2.742;2023-09-07T09:10:33;13.10;;;11.13;;
33862;SDS011;20158;51.436;-2.742;2023-09-07T09:13:00;11.85;;;10.70;;
33862;SDS011;20158;51.436;-2.742;2023-09-07T09:15:26;11.52;;;10.35;;
33862;SDS011;20158;51.436;-2.742;2023-09-07T09:17:53;10.52;;;9.60;;
33862;SDS011;20158;51.436;-2.742;2023-09-07T09:20:23;11.98;;;10.90;;
33862;SDS011;20158;51.436;-2.742;2023-09-07T09:22:51;10.50;;;9.43;;
33862;SDS011;20158;51.436;-2.742;2023-09-07T09:25:20;11.75;;;10.55;;
33862;SDS011;20158;51.436;-2.742;2023-09-07T09:27:47;11.05;;;10.02;;
33862;SDS011;20158;51.436;-2.742;2023-09-07T09:30:13;11.18;;;9.88;;
33862;SDS011;20158;51.436;-2.742;2023-09-07T09:32:42;11.52;;;10.15;;
33862;SDS011;20158;51.436;-2.742;2023-09-07T09:35:10;10.73;;;9.25;;
33862;SDS011;20158;51.436;-2.742;2023-09-07T09:37:43;12.07;;;9.68;;
33862;SDS011;20158;51.436;-2.742;2023-09-07T09:40:17;10.95;;;9.95;;
33862;SDS011;20158;51.436;-2.742;2023-09-07T09:42:44;11.07;;;9.93;;
33862;SDS011;20158;51.436;-2.742;2023-09-07T09:45:15;10.43;;;9.45;;
33862;SDS011;20158;51.436;-2.742;2023-09-07T09:47:42;10.93;;;9.90;;
33862;SDS011;20158;51.436;-2.742;2023-09-07T09:50:09;9.90;;;9.00;;
33862;SDS011;20158;51.436;-2.742;2023-09-07T09:52:36;10.75;;;9.77;;
33862;SDS011;20158;51.436;-2.742;2023-09-07T09:55:04;10.57;;;9.48;;
33862;SDS011;20158;51.436;-2.742;2023-09-07T09:57:34;9.88;;;9.07;;
33862;SDS011;20158;51.436;-2.742;2023-09-07T10:00:02;9.80;;;8.80;;
33862;SDS011;20158;51.436;-2.742;2023-09-07T10:02:51;11.55;;;9.48;;
33862;SDS011;20158;51.436;-2.742;2023-09-07T10:05:30;10.90;;;9.35;;
33862;SDS011;20158;51.436;-2.742;2023-09-07T10:08:01;9.25;;;8.35;;
33862;SDS011;20158;51.436;-2.742;2023-09-07T10:10:34;9.55;;;8.70;;
33862;SDS011;20158;51.436;-2.742;2023-09-07T10:13:02;10.20;;;9.07;;
33862;SDS011;20158;51.436;-2.742;2023-09-07T10:15:31;10.48;;;9.48;;
33862;SDS011;20158;51.436;-2.742;2023-09-07T10:18:15;9.18;;;8.38;;
33862;SDS011;20158;51.436;-2.742;2023-09-07T10:20:58;8.82;;;7.90;;
33862;SDS011;20158;51.436;-2.742;2023-09-07T10:26:14;9.10;;;8.30;;
33862;SDS011;20158;51.436;-2.742;2023-09-07T10:28:45;8.93;;;8.02;;
33862;SDS011;20158;51.436;-2.742;2023-09-07T10:31:18;8.52;;;7.70;;
33862;SDS011;20158;51.436;-2.742;2023-09-07T10:33:46;9.68;;;8.25;;
33862;SDS011;20158;51.436;-2.742;2023-09-07T10:36:22;8.32;;;7.68;;
33862;SDS011;20158;51.436;-2.742;2023-09-07T10:38:51;8.93;;;7.65;;
33862;SDS011;20158;51.436;-2.742;2023-09-07T10:41:21;7.90;;;7.18;;
33862;SDS011;20158;51.436;-2.742;2023-09-07T10:43:49;8.07;;;7.28;;
33862;SDS011;20158;51.436;-2.742;2023-09-07T10:46:20;8.55;;;7.78;;
33862;SDS011;20158;51.436;-2.742;2023-09-07T10:48:51;8.40;;;7.70;;
33862;SDS011;20158;51.436;-2.742;2023-09-07T10:51:19;7.30;;;6.60;;
33862;SDS011;20158;51.436;-2.742;2023-09-07T10:53:46;7.45;;;6.72;;
33862;SDS011;20158;51.436;-2.742;2023-09-07T10:56:12;7.90;;;7.13;;
33862;SDS011;20158;51.436;-2.742;2023-09-07T10:58:42;7.32;;;6.72;;
33862;SDS011;20158;51.436;-2.742;2023-09-07T11:01:09;8.18;;;7.38;;
33862;SDS011;20158;51.436;-2.742;2023-09-07T11:03:36;8.18;;;7.47;;
33862;SDS011;20158;51.436;-2.742;2023-09-07T11:06:04;7.75;;;6.95;;
33862;SDS011;20158;51.436;-2.742;2023-09-07T11:08:35;7.93;;;7.13;;
33862;SDS011;20158;51.436;-2.742;2023-09-07T11:11:02;8.07;;;7.35;;
33862;SDS011;20158;51.436;-2.742;2023-09-07T11:13:29;7.03;;;6.53;;
33862;SDS011;20158;51.436;-2.742;2023-09-07T11:15:56;6.88;;;6.18;;
33862;SDS011;20158;51.436;-2.742;2023-09-07T11:18:24;7.10;;;6.60;;
33862;SDS011;20158;51.436;-2.742;2023-09-07T11:20:52;7.40;;;6.70;;
33862;SDS011;20158;51.436;-2.742;2023-09-07T11:23:20;8.35;;;7.30;;
33862;SDS011;20158;51.436;-2.742;2023-09-07T11:25:48;7.18;;;6.47;;
33862;SDS011;20158;51.436;-2.742;2023-09-07T11:28:15;7.30;;;6.60;;
33862;SDS011;20158;51.436;-2.742;2023-09-07T11:30:50;7.13;;;6.47;;
33862;SDS011;20158;51.436;-2.742;2023-09-07T11:33:16;7.18;;;6.57;;
33862;SDS011;20158;51.436;-2.742;2023-09-07T11:35:43;8.02;;;7.05;;
33862;SDS011;20158;51.436;-2.742;2023-09-07T11:38:12;8.43;;;7.35;;
33862;SDS011;20158;51.436;-2.742;2023-09-07T11:40:40;6.80;;;6.20;;
33862;SDS011;20158;51.436;-2.742;2023-09-07T11:43:10;7.30;;;6.60;;
33862;SDS011;20158;51.436;-2.742;2023-09-07T11:45:39;7.20;;;6.00;;
33862;SDS011;20158;51.436;-2.742;2023-09-07T11:48:09;8.18;;;7.20;;
33862;SDS011;20158;51.436;-2.742;2023-09-07T11:50:37;6.95;;;6.30;;
33862;SDS011;20158;51.436;-2.742;2023-09-07T11:53:04;6.45;;;5.90;;
33862;SDS011;20158;51.436;-2.742;2023-09-07T11:55:32;6.47;;;5.88;;
33862;SDS011;20158;51.436;-2.742;2023-09-07T11:58:00;6.40;;;5.88;;
33862;SDS011;20158;51.436;-2.742;2023-09-07T12:00:27;5.82;;;5.35;;
33862;SDS011;20158;51.436;-2.742;2023-09-07T12:02:55;5.80;;;5.32;;
33862;SDS011;20158;51.436;-2.742;2023-09-07T12:05:22;8.18;;;5.40;;
33862;SDS011;20158;51.436;-2.742;2023-09-07T12:07:51;6.22;;;5.72;;
33862;SDS011;20158;51.436;-2.742;2023-09-07T12:10:18;6.88;;;5.38;;
33862;SDS011;20158;51.436;-2.742;2023-09-07T12:12:46;5.50;;;5.00;;
33862;SDS011;20158;51.436;-2.742;2023-09-07T12:15:12;5.30;;;4.90;;
33862;SDS011;20158;51.436;-2.742;2023-09-07T12:17:39;5.10;;;4.60;;
33862;SDS011;20158;51.436;-2.742;2023-09-07T12:20:06;5.72;;;5.32;;
33862;SDS011;20158;51.436;-2.742;2023-09-07T12:22:36;5.43;;;5.00;;
33862;SDS011;20158;51.436;-2.742;2023-09-07T12:25:04;9.77;;;6.10;;
33862;SDS011;20158;51.436;-2.742;2023-09-07T12:27:34;5.65;;;5.25;;
33862;SDS011;20158;51.436;-2.742;2023-09-07T12:30:01;5.38;;;4.88;;
33862;SDS011;20158;51.436;-2.742;2023-09-07T12:32:32;5.05;;;4.68;;
33862;SDS011;20158;51.436;-2.742;2023-09-07T12:34:59;5.93;;;5.43;;
33862;SDS011;20158;51.436;-2.742;2023-09-07T12:37:25;5.07;;;4.68;;
33862;SDS011;20158;51.436;-2.742;2023-09-07T12:39:52;5.47;;;4.82;;
33862;SDS011;20158;51.436;-2.742;2023-09-07T12:42:18;5.82;;;5.32;;
33862;SDS011;20158;51.436;-2.742;2023-09-07T12:44:45;5.18;;;4.78;;
33862;SDS011;20158;51.436;-2.742;2023-09-07T12:47:11;5.65;;;5.25;;
33862;SDS011;20158;51.436;-2.742;2023-09-07T12:49:37;5.22;;;4.93;;
33862;SDS011;20158;51.436;-2.742;2023-09-07T12:52:03;6.10;;;4.78;;
33862;SDS011;20158;51.436;-2.742;2023-09-07T12:54:37;5.32;;;4.82;;
33862;SDS011;20158;51.436;-2.742;2023-09-07T12:57:03;6.82;;;5.53;;
33862;SDS011;20158;51.436;-2.742;2023-09-07T12:59:29;5.97;;;5.47;;
33862;SDS011;20158;51.436;-2.742;2023-09-07T13:01:56;5.65;;;5.25;;
33862;SDS011;20158;51.436;-2.742;2023-09-07T13:04:25;5.80;;;5.30;;
33862;SDS011;20158;51.436;-2.742;2023-09-07T13:06:51;5.57;;;5.10;;
33862;SDS011;20158;51.436;-2.742;2023-09-07T13:09:17;5.20;;;4.80;;
33862;SDS011;20158;51.436;-2.742;2023-09-07T13:11:44;5.38;;;4.97;;
33862;SDS011;20158;51.436;-2.742;2023-09-07T13:14:10;10.30;;;4.95;;
33862;SDS011;20158;51.436;-2.742;2023-09-07T13:16:40;5.07;;;4.68;;
33862;SDS011;20158;51.436;-2.742;2023-09-07T13:19:10;4.40;;;4.10;;
33862;SDS011;20158;51.436;-2.742;2023-09-07T13:21:36;5.30;;;4.90;;
33862;SDS011;20158;51.436;-2.742;2023-09-07T13:24:03;5.32;;;4.93;;
33862;SDS011;20158;51.436;-2.742;2023-09-07T13:26:30;5.60;;;5.10;;
33862;SDS011;20158;51.436;-2.742;2023-09-07T13:28:56;5.07;;;4.68;;
33862;SDS011;20158;51.436;-2.742;2023-09-07T13:31:25;4.82;;;4.43;;
33862;SDS011;20158;51.436;-2.742;2023-09-07T13:33:52;4.97;;;4.47;;
33862;SDS011;20158;51.436;-2.742;2023-09-07T13:36:19;4.93;;;4.47;;
33862;SDS011;20158;51.436;-2.742;2023-09-07T13:38:45;4.90;;;4.43;;
33862;SDS011;20158;51.436;-2.742;2023-09-07T13:41:11;4.63;;;3.90;;
33862;SDS011;20158;51.436;-2.742;2023-09-07T13:43:38;4.55;;;4.20;;
33862;SDS011;20158;51.436;-2.742;2023-09-07T13:46:07;6.18;;;4.20;;
33862;SDS011;20158;51.436;-2.742;2023-09-07T13:48:34;4.45;;;4.10;;
33862;SDS011;20158;51.436;-2.742;2023-09-07T13:51:03;5.15;;;4.40;;
33862;SDS011;20158;51.436;-2.742;2023-09-07T13:53:29;4.28;;;3.88;;
33862;SDS011;20158;51.436;-2.742;2023-09-07T13:55:56;5.32;;;3.75;;
33862;SDS011;20158;51.436;-2.742;2023-09-07T13:58:23;5.30;;;4.80;;
33862;SDS011;20158;51.436;-2.742;2023-09-07T14:00:49;4.57;;;4.20;;
33862;SDS011;20158;51.436;-2.742;2023-09-07T14:03:17;4.32;;;4.03;;
33862;SDS011;20158;51.436;-2.742;2023-09-07T14:05:43;4.50;;;4.10;;
33862;SDS011;20158;51.436;-2.742;2023-09-07T14:08:10;3.90;;;3.60;;
33862;SDS011;20158;51.436;-2.742;2023-09-07T14:10:37;4.97;;;4.68;;
33862;SDS011;20158;51.436;-2.742;2023-09-07T14:13:03;4.47;;;4.07;;
33862;SDS011;20158;51.436;-2.742;2023-09-07T14:15:29;5.78;;;5.00;;
33862;SDS011;20158;51.436;-2.742;2023-09-07T14:18:00;8.25;;;4.50;;
33862;SDS011;20158;51.436;-2.742;2023-09-07T14:20:27;7.15;;;4.32;;
33862;SDS011;20158;51.436;-2.742;2023-09-07T14:22:54;4.68;;;4.32;;
33862;SDS011;20158;51.436;-2.742;2023-09-07T14:25:22;4.57;;;4.18;;
33862;SDS011;20158;51.436;-2.742;2023-09-07T14:27:49;4.55;;;4.15;;
33862;SDS011;20158;51.436;-2.742;2023-09-07T14:30:15;3.92;;;3.45;;